createdAt,value
2017-11-17T00:01:29.750Z,54.53
2017-11-17T00:03:58.665Z,49.30
2017-11-17T00:06:26.801Z,57.87
2017-11-17T00:08:54.941Z,65.90
2017-11-17T00:11:23.053Z,57.33
2017-11-17T00:13:51.964Z,63.33
2017-11-17T00:16:20.850Z,65.87
2017-11-17T00:18:49.787Z,62.50
2017-11-17T00:21:17.933Z,67.43
2017-11-17T00:23:46.070Z,62.53
2017-11-17T00:26:14.974Z,71.47
2017-11-17T00:28:43.866Z,71.10
2017-11-17T00:31:12.761Z,63.90
2017-11-17T00:33:40.906Z,68.97
2017-11-17T00:36:09.121Z,61.53
2017-11-17T00:38:37.237Z,67.00
2017-11-17T00:41:06.892Z,58.07
2017-11-17T00:43:35.020Z,67.73
2017-11-17T00:46:03.159Z,64.43
2017-11-17T00:48:31.290Z,70.50
2017-11-17T00:50:59.450Z,67.53
2017-11-17T00:53:27.576Z,69.90
2017-11-17T00:55:55.716Z,71.63
2017-11-17T00:58:23.850Z,61.87
2017-11-17T01:00:52.005Z,67.63
2017-11-17T01:03:20.125Z,65.70
2017-11-17T01:05:49.032Z,68.50
2017-11-17T01:08:17.180Z,67.83
2017-11-17T01:10:45.292Z,70.67
2017-11-17T01:13:13.430Z,66.50
2017-11-17T01:15:42.349Z,68.40
2017-11-17T01:18:10.462Z,72.20
2017-11-17T01:20:38.602Z,62.90
2017-11-17T01:23:06.736Z,64.63
2017-11-17T01:25:35.665Z,69.40
2017-11-17T01:28:03.768Z,67.83
2017-11-17T01:30:31.918Z,67.77
2017-11-17T01:33:00.033Z,72.10
2017-11-17T01:35:28.965Z,84.07
2017-11-17T01:37:57.106Z,69.53
2017-11-17T01:40:25.975Z,77.77
2017-11-17T01:42:55.638Z,75.43
2017-11-17T01:45:23.753Z,62.23
2017-11-17T01:47:51.983Z,69.30
2017-11-17T01:50:20.114Z,70.10
2017-11-17T01:52:49.021Z,61.97
2017-11-17T01:55:17.934Z,71.33
2017-11-17T01:57:46.056Z,60.50
2017-11-17T02:00:15.731Z,57.77
2017-11-17T02:02:43.864Z,65.73
2017-11-17T02:05:11.998Z,67.47
2017-11-17T02:07:40.160Z,71.87
2017-11-17T02:10:08.316Z,58.57
2017-11-17T02:12:36.453Z,63.73
2017-11-17T02:15:05.361Z,60.93
2017-11-17T02:17:33.496Z,64.87
2017-11-17T02:20:02.424Z,66.40
2017-11-17T02:22:30.549Z,60.57
2017-11-17T02:24:58.702Z,60.70
2017-11-17T02:27:26.831Z,61.73
2017-11-17T02:29:54.973Z,63.70
2017-11-17T02:32:23.094Z,57.73
2017-11-17T02:34:51.234Z,63.93
2017-11-17T02:37:19.372Z,60.47
2017-11-17T02:39:47.491Z,72.77
2017-11-17T02:42:15.633Z,60.60
2017-11-17T02:44:44.521Z,55.20
2017-11-17T02:47:13.423Z,64.00
2017-11-17T02:49:42.336Z,60.40
2017-11-17T02:52:10.480Z,53.67
2017-11-17T02:54:39.389Z,54.00
2017-11-17T02:57:07.522Z,61.97
2017-11-17T02:59:35.662Z,64.53
2017-11-17T03:02:03.781Z,66.10
2017-11-17T03:04:32.680Z,66.23
2017-11-17T03:07:01.585Z,58.30
2017-11-17T03:09:29.737Z,62.03
2017-11-17T03:11:58.617Z,59.17
2017-11-17T03:14:26.748Z,60.90
2017-11-17T03:16:54.877Z,57.47
2017-11-17T03:19:23.763Z,60.60
2017-11-17T03:21:52.660Z,66.30
2017-11-17T03:24:21.590Z,67.03
2017-11-17T03:26:49.718Z,60.83
2017-11-17T03:29:18.610Z,66.43
2017-11-17T03:31:47.513Z,60.53
2017-11-17T03:34:15.657Z,57.47
2017-11-17T03:36:43.790Z,70.43
2017-11-17T03:39:11.949Z,57.70
2017-11-17T03:41:40.091Z,53.60
2017-11-17T03:44:08.969Z,73.30
2017-11-17T03:46:37.875Z,67.40
2017-11-17T03:49:06.015Z,64.30
2017-11-17T03:51:34.141Z,60.17
2017-11-17T03:54:02.305Z,67.80
2017-11-17T03:56:30.490Z,68.00
2017-11-17T03:58:58.629Z,63.60
2017-11-17T04:01:27.531Z,76.33
2017-11-17T04:03:56.437Z,71.80
2017-11-17T04:06:24.580Z,71.67
2017-11-17T04:08:53.474Z,66.50
2017-11-17T04:11:22.348Z,74.53
2017-11-17T04:13:51.275Z,71.50
2017-11-17T04:16:19.395Z,71.40
2017-11-17T04:18:47.594Z,68.37
2017-11-17T04:21:16.497Z,74.70
2017-11-17T04:23:44.642Z,68.13
2017-11-17T04:26:12.771Z,72.67
2017-11-17T04:28:40.909Z,64.70
2017-11-17T04:31:09.093Z,62.93
2017-11-17T04:33:37.224Z,70.87
2017-11-17T04:36:05.346Z,61.50
2017-11-17T04:38:33.491Z,70.97
2017-11-17T04:41:02.419Z,63.40
2017-11-17T04:43:30.558Z,64.00
2017-11-17T04:45:59.467Z,67.17
2017-11-17T04:48:27.601Z,67.20
2017-11-17T04:50:56.485Z,70.77
2017-11-17T04:53:24.621Z,79.93
2017-11-17T04:55:53.512Z,68.30
2017-11-17T04:58:21.684Z,69.27
2017-11-17T05:00:49.899Z,71.13
2017-11-17T05:03:18.024Z,67.17
2017-11-17T05:05:46.170Z,66.40
2017-11-17T05:08:15.086Z,64.57
2017-11-17T05:10:43.994Z,65.17
2017-11-17T05:13:12.122Z,71.73
2017-11-17T05:15:40.305Z,74.10
2017-11-17T05:18:08.444Z,81.10
2017-11-17T05:20:36.577Z,69.73
2017-11-17T05:23:05.465Z,72.13
2017-11-17T05:25:33.590Z,70.50
2017-11-17T05:28:02.505Z,68.83
2017-11-17T05:30:30.633Z,76.87
2017-11-17T05:32:58.769Z,76.80
2017-11-17T05:35:26.961Z,67.27
2017-11-17T05:37:55.085Z,73.17
2017-11-17T05:40:23.211Z,64.83
2017-11-17T05:42:51.441Z,70.63
2017-11-17T05:45:19.582Z,72.57
2017-11-17T05:47:48.491Z,69.20
2017-11-17T05:50:16.628Z,68.30
2017-11-17T05:52:44.749Z,72.53
2017-11-17T05:55:12.914Z,61.07
2017-11-17T05:57:41.064Z,61.27
2017-11-17T06:00:09.956Z,72.63
2017-11-17T06:02:38.869Z,64.87
2017-11-17T06:05:07.001Z,77.60
2017-11-17T06:07:35.897Z,66.63
2017-11-17T06:10:04.789Z,71.30
2017-11-17T06:12:33.725Z,64.33
2017-11-17T06:15:01.863Z,74.87
2017-11-17T06:17:30.789Z,68.57
2017-11-17T06:19:58.913Z,69.13
2017-11-17T06:22:27.809Z,63.47
2017-11-17T06:24:55.937Z,72.97
2017-11-17T06:27:24.075Z,73.23
2017-11-17T06:29:52.215Z,73.07
2017-11-17T06:32:20.338Z,74.87
2017-11-17T06:34:48.496Z,80.20
2017-11-17T06:37:16.660Z,64.60
2017-11-17T06:39:45.548Z,66.47
2017-11-17T06:42:13.676Z,67.67
2017-11-17T06:44:41.833Z,67.40
2017-11-17T06:47:09.983Z,71.63
2017-11-17T06:49:38.114Z,69.53
2017-11-17T06:52:07.041Z,73.27
2017-11-17T06:54:35.247Z,70.23
2017-11-17T06:57:03.427Z,70.63
2017-11-17T06:59:31.577Z,64.40
2017-11-17T07:01:59.685Z,76.30
2017-11-17T07:04:27.830Z,67.57
2017-11-17T07:06:56.733Z,81.10
2017-11-17T07:09:24.870Z,81.63
2017-11-17T07:11:53.026Z,75.30
2017-11-17T07:14:22.032Z,69.23
2017-11-17T07:16:50.162Z,72.80
2017-11-17T07:19:18.290Z,67.33
2017-11-17T07:21:46.457Z,70.00
2017-11-17T07:24:15.452Z,74.93
2017-11-17T07:26:43.611Z,75.80
2017-11-17T07:29:11.778Z,69.03
2017-11-17T07:31:39.918Z,64.63
2017-11-17T07:34:08.101Z,73.10
2017-11-17T07:36:36.237Z,78.30
2017-11-17T07:39:04.368Z,72.80
2017-11-17T07:41:32.508Z,65.47
2017-11-17T07:44:00.638Z,70.03
2017-11-17T07:46:29.530Z,70.67
2017-11-17T07:48:57.702Z,68.43
2017-11-17T07:51:25.827Z,62.07
2017-11-17T07:53:54.816Z,64.73
2017-11-17T07:56:22.930Z,65.60
2017-11-17T07:58:51.062Z,62.23
2017-11-17T08:01:19.200Z,68.63
2017-11-17T08:03:47.474Z,67.60
2017-11-17T08:06:15.593Z,74.40
2017-11-17T08:08:44.504Z,69.30
2017-11-17T08:11:12.640Z,72.47
2017-11-17T08:13:41.560Z,71.23
2017-11-17T08:16:09.716Z,68.07
2017-11-17T08:18:41.161Z,72.03
2017-11-17T08:21:09.305Z,70.60
2017-11-17T08:23:37.421Z,72.70
2017-11-17T08:26:05.583Z,63.97
2017-11-17T08:28:34.467Z,65.63
2017-11-17T08:31:03.383Z,72.10
2017-11-17T08:33:31.531Z,69.20
2017-11-17T08:35:59.669Z,68.97
2017-11-17T08:38:27.796Z,76.17
2017-11-17T08:40:55.937Z,72.80
2017-11-17T08:43:24.841Z,78.60
2017-11-17T08:45:53.729Z,81.97
2017-11-17T08:48:22.637Z,79.97
2017-11-17T08:50:50.774Z,83.67
2017-11-17T08:53:18.922Z,80.90
2017-11-17T08:55:47.045Z,88.90
2017-11-17T08:58:15.201Z,84.57
2017-11-17T09:00:43.357Z,80.53
2017-11-17T09:03:11.537Z,74.60
2017-11-17T09:05:39.654Z,87.20
2017-11-17T09:08:07.813Z,82.53
2017-11-17T09:10:36.705Z,92.03
2017-11-17T09:13:06.097Z,79.33
2017-11-17T09:15:35.019Z,89.27
2017-11-17T09:18:03.174Z,81.30
2017-11-17T09:20:31.305Z,82.50
2017-11-17T09:22:59.468Z,92.50
2017-11-17T09:25:27.612Z,81.90
2017-11-17T09:27:55.756Z,78.30
2017-11-17T09:30:23.933Z,80.87
2017-11-17T09:32:52.064Z,83.00
2017-11-17T09:35:20.205Z,74.90
2017-11-17T09:37:48.330Z,81.30
2017-11-17T09:40:17.229Z,76.37
2017-11-17T09:42:45.379Z,88.87
2017-11-17T09:45:15.007Z,103.73
2017-11-17T09:47:43.930Z,97.17
2017-11-17T09:50:12.079Z,98.47
2017-11-17T09:52:40.240Z,96.70
2017-11-17T09:55:09.145Z,100.00
2017-11-17T09:57:37.377Z,89.40
2017-11-17T10:00:05.485Z,75.90
2017-11-17T10:02:33.644Z,94.27
2017-11-17T10:05:02.559Z,87.47
2017-11-17T10:07:30.737Z,95.27
2017-11-17T10:09:58.874Z,97.30
2017-11-17T10:12:27.024Z,103.37
2017-11-17T10:14:55.143Z,91.80
2017-11-17T10:17:23.287Z,94.87
2017-11-17T10:19:51.429Z,97.00
2017-11-17T10:22:19.585Z,104.97
2017-11-17T10:24:47.754Z,94.47
2017-11-17T10:27:15.900Z,101.10
2017-11-17T10:29:44.817Z,98.27
2017-11-17T10:32:13.012Z,90.47
2017-11-17T10:34:41.175Z,88.43
2017-11-17T10:37:10.120Z,81.23
2017-11-17T10:39:38.403Z,92.17
2017-11-17T10:42:07.386Z,95.77
2017-11-17T10:44:36.302Z,98.17
2017-11-17T10:47:04.438Z,92.70
2017-11-17T10:49:33.403Z,95.53
2017-11-17T10:52:01.532Z,102.80
2017-11-17T10:54:29.711Z,97.40
2017-11-17T10:56:58.211Z,103.03
2017-11-17T10:59:26.346Z,81.70
2017-11-17T11:01:54.503Z,87.70
2017-11-17T11:04:23.427Z,93.43
2017-11-17T11:06:51.599Z,92.23
2017-11-17T11:09:19.755Z,101.33
2017-11-17T11:11:52.050Z,94.20
2017-11-17T11:14:20.196Z,96.10
2017-11-17T11:16:48.342Z,100.67
2017-11-17T11:19:16.478Z,96.67
2017-11-17T11:21:44.627Z,91.40
2017-11-17T11:24:13.586Z,96.77
2017-11-17T11:26:42.485Z,90.77
2017-11-17T11:29:11.433Z,86.93
2017-11-17T11:31:40.365Z,87.13
2017-11-17T11:34:09.273Z,93.23
2017-11-17T11:36:37.412Z,87.87
2017-11-17T11:39:05.571Z,80.50
2017-11-17T11:41:33.717Z,91.97
2017-11-17T11:44:01.884Z,87.77
2017-11-17T11:46:30.006Z,94.97
2017-11-17T11:48:58.917Z,92.87
2017-11-17T11:51:27.834Z,86.07
2017-11-17T11:53:55.977Z,84.17
2017-11-17T11:56:24.191Z,82.87
2017-11-17T11:58:52.309Z,99.03
2017-11-17T12:01:21.231Z,89.47
2017-11-17T12:03:49.380Z,90.50
2017-11-17T12:06:18.297Z,92.00
2017-11-17T12:08:46.462Z,92.07
2017-11-17T12:11:14.604Z,86.77
2017-11-17T12:13:42.751Z,76.83
2017-11-17T12:16:10.899Z,86.17
2017-11-17T12:18:39.044Z,92.60
2017-11-17T12:21:07.947Z,92.53
2017-11-17T12:23:36.089Z,92.50
2017-11-17T12:26:04.979Z,92.83
2017-11-17T12:28:34.229Z,83.80
2017-11-17T12:31:02.360Z,91.13
2017-11-17T12:33:31.310Z,88.10
2017-11-17T12:35:59.461Z,86.90
2017-11-17T12:38:27.612Z,89.17
2017-11-17T12:40:55.761Z,96.27
2017-11-17T12:43:24.732Z,87.40
2017-11-17T12:45:52.931Z,94.80
2017-11-17T12:48:21.076Z,87.60
2017-11-17T12:50:49.238Z,83.87
2017-11-17T12:53:17.373Z,88.03
2017-11-17T12:55:45.560Z,105.13
2017-11-17T12:58:13.686Z,93.43
2017-11-17T13:00:42.972Z,96.27
2017-11-17T13:03:11.123Z,96.17
2017-11-17T13:05:39.302Z,96.17
2017-11-17T13:08:07.455Z,90.93
2017-11-17T13:10:35.605Z,94.10
2017-11-17T13:13:03.758Z,84.40
2017-11-17T13:15:32.698Z,82.47
2017-11-17T13:18:00.853Z,83.50
2017-11-17T13:20:29.013Z,79.07
2017-11-17T13:22:57.948Z,80.50
2017-11-17T13:25:26.072Z,87.00
2017-11-17T13:27:55.058Z,84.20
2017-11-17T13:30:23.959Z,82.30
2017-11-17T13:32:52.109Z,88.20
2017-11-17T13:35:21.043Z,79.20
2017-11-17T13:37:49.168Z,82.93
2017-11-17T13:40:18.079Z,68.27
2017-11-17T13:42:46.249Z,71.00
2017-11-17T13:45:14.393Z,76.27
2017-11-17T13:47:43.340Z,66.87
2017-11-17T13:50:11.468Z,75.37
2017-11-17T13:52:40.375Z,73.57
2017-11-17T13:55:09.279Z,81.87
2017-11-17T13:57:37.397Z,75.17
2017-11-17T14:00:05.557Z,69.53
2017-11-17T14:02:33.762Z,66.37
2017-11-17T14:05:02.694Z,68.67
2017-11-17T14:07:30.856Z,80.37
2017-11-17T14:09:59.062Z,75.63
2017-11-17T14:12:27.225Z,85.73
2017-11-17T14:14:55.421Z,77.40
2017-11-17T14:17:23.575Z,79.07
2017-11-17T14:19:51.731Z,81.73
2017-11-17T14:22:19.877Z,83.27
2017-11-17T14:24:48.035Z,86.60
2017-11-17T14:27:16.969Z,93.43
2017-11-17T14:29:45.241Z,81.80
2017-11-17T14:32:13.400Z,84.67
2017-11-17T14:34:41.550Z,92.90
2017-11-17T14:37:10.473Z,89.67
2017-11-17T14:39:38.643Z,78.53
2017-11-17T14:42:06.826Z,86.03
2017-11-17T14:44:34.986Z,87.23
2017-11-17T14:47:03.144Z,88.40
2017-11-17T14:49:32.044Z,80.70
2017-11-17T14:52:00.196Z,75.40
2017-11-17T14:54:29.120Z,76.20
2017-11-17T14:56:58.040Z,65.83
2017-11-17T14:59:26.182Z,72.07
2017-11-17T15:01:54.359Z,55.33
2017-11-17T15:04:22.493Z,60.50
2017-11-17T15:06:51.434Z,60.10
2017-11-17T15:09:19.576Z,46.00
2017-11-17T15:11:47.715Z,45.93
2017-11-17T15:14:15.903Z,46.27
2017-11-17T15:16:44.074Z,46.97
2017-11-17T15:19:13.056Z,52.83
2017-11-17T15:21:41.185Z,57.57
2017-11-17T15:24:09.356Z,61.90
2017-11-17T15:26:37.532Z,50.50
2017-11-17T15:29:05.687Z,52.67
2017-11-17T15:31:33.825Z,56.63
2017-11-17T15:34:01.981Z,51.07
2017-11-17T15:36:30.117Z,52.93
2017-11-17T15:38:58.281Z,56.20
2017-11-17T15:41:26.425Z,64.43
2017-11-17T15:43:55.318Z,67.00
2017-11-17T15:46:24.242Z,60.80
2017-11-17T15:48:52.406Z,62.10
2017-11-17T15:51:20.579Z,58.90
2017-11-17T15:53:48.750Z,57.73
2017-11-17T15:56:16.930Z,59.53
2017-11-17T15:58:45.081Z,67.07
2017-11-17T16:01:13.332Z,62.63
2017-11-17T16:03:42.307Z,59.87
2017-11-17T16:06:10.478Z,57.40
2017-11-17T16:08:38.616Z,73.87
2017-11-17T16:11:06.796Z,64.33
2017-11-17T16:13:35.042Z,62.97
2017-11-17T16:16:03.211Z,72.23
2017-11-17T16:18:32.142Z,74.50
2017-11-17T16:21:00.262Z,76.63
2017-11-17T16:23:29.193Z,70.10
2017-11-17T16:25:57.332Z,70.97
2017-11-17T16:28:26.271Z,71.40
2017-11-17T16:30:54.410Z,66.40
2017-11-17T16:33:23.356Z,72.60
2017-11-17T16:35:51.606Z,70.63
2017-11-17T16:38:19.937Z,72.70
2017-11-17T16:40:48.131Z,76.57
2017-11-17T16:43:16.262Z,68.93
2017-11-17T16:45:44.838Z,69.47
2017-11-17T16:48:13.083Z,69.57
2017-11-17T16:50:41.239Z,75.50
2017-11-17T16:53:09.399Z,90.97
2017-11-17T16:55:37.542Z,87.57
2017-11-17T16:58:05.690Z,80.20
2017-11-17T17:00:33.844Z,73.87
2017-11-17T17:03:02.013Z,74.57
2017-11-17T17:05:30.190Z,86.73
2017-11-17T17:07:58.351Z,81.53
2017-11-17T17:10:26.515Z,89.50
2017-11-17T17:12:54.693Z,69.80
2017-11-17T17:15:22.846Z,80.67
2017-11-17T17:17:51.026Z,78.80
2017-11-17T17:20:19.163Z,88.27
2017-11-17T17:22:47.351Z,89.70
2017-11-17T17:25:15.546Z,86.07
2017-11-17T17:27:43.691Z,83.17
2017-11-17T17:30:12.626Z,85.67
2017-11-17T17:32:40.801Z,93.83
2017-11-17T17:35:08.979Z,90.57
2017-11-17T17:37:37.397Z,76.77
2017-11-17T17:40:05.527Z,77.20
2017-11-17T17:42:33.690Z,80.83
2017-11-17T17:45:01.840Z,76.43
2017-11-17T17:47:30.749Z,76.47
2017-11-17T17:49:58.914Z,74.70
2017-11-17T17:52:27.080Z,79.50
2017-11-17T17:54:56.003Z,84.63
2017-11-17T17:57:24.150Z,70.70
2017-11-17T17:59:52.306Z,77.40
2017-11-17T18:02:20.475Z,78.27
2017-11-17T18:04:49.376Z,71.50
2017-11-17T18:07:17.549Z,83.00
2017-11-17T18:09:45.701Z,80.27
2017-11-17T18:12:13.933Z,77.67
2017-11-17T18:14:42.069Z,80.07
2017-11-17T18:17:10.220Z,68.67
2017-11-17T18:19:38.383Z,75.73
2017-11-17T18:22:06.573Z,73.03
2017-11-17T18:24:35.496Z,68.17
2017-11-17T18:27:03.717Z,68.00
2017-11-17T18:29:31.872Z,76.20
2017-11-17T18:32:00.007Z,68.57
2017-11-17T18:34:28.909Z,73.23
2017-11-17T18:36:57.082Z,69.77
2017-11-17T18:39:25.239Z,80.23
2017-11-17T18:41:53.483Z,80.00
2017-11-17T18:44:21.571Z,94.27
2017-11-17T18:46:50.467Z,80.40
2017-11-17T18:49:18.626Z,85.37
2017-11-17T18:51:46.865Z,83.57
2017-11-17T18:54:14.944Z,83.10
2017-11-17T18:56:43.124Z,92.77
2017-11-17T18:59:11.232Z,94.40
2017-11-17T19:01:39.446Z,92.07
2017-11-17T19:04:08.309Z,80.70
2017-11-17T19:06:36.482Z,99.97
2017-11-17T19:09:04.692Z,103.30
2017-11-17T19:11:33.609Z,105.17
2017-11-17T19:14:01.833Z,96.57
2017-11-17T19:16:29.992Z,100.33
2017-11-17T19:18:58.143Z,85.67
2017-11-17T19:21:27.108Z,98.73
2017-11-17T19:23:55.307Z,79.23
2017-11-17T19:26:24.229Z,95.90
2017-11-17T19:28:52.443Z,83.87
2017-11-17T19:31:20.583Z,103.57
2017-11-17T19:33:48.739Z,93.20
2017-11-17T19:36:16.943Z,98.90
2017-11-17T19:38:45.091Z,93.67
2017-11-17T19:41:13.255Z,91.57
2017-11-17T19:43:41.473Z,102.87
2017-11-17T19:46:09.631Z,92.90
2017-11-17T19:48:37.781Z,92.37
2017-11-17T19:51:06.735Z,98.73
2017-11-17T19:53:35.644Z,92.63
2017-11-17T19:56:03.808Z,95.03
2017-11-17T19:58:32.703Z,98.63
2017-11-17T20:01:00.855Z,91.50
2017-11-17T20:03:29.795Z,102.57
2017-11-17T20:05:57.963Z,98.83
2017-11-17T20:08:26.134Z,89.70
2017-11-17T20:10:54.281Z,93.27
2017-11-17T20:13:23.222Z,102.90
2017-11-17T20:15:52.111Z,97.57
2017-11-17T20:18:20.305Z,94.03
2017-11-17T20:20:48.434Z,93.97
2017-11-17T20:23:16.607Z,94.67
2017-11-17T20:25:44.770Z,95.37
2017-11-17T20:28:12.940Z,89.77
2017-11-17T20:30:41.100Z,87.60
2017-11-17T20:33:10.030Z,84.00
2017-11-17T20:35:38.160Z,91.40
2017-11-17T20:38:07.096Z,91.27
2017-11-17T20:40:35.238Z,97.67
2017-11-17T20:43:03.396Z,88.37
2017-11-17T20:45:32.326Z,88.70
2017-11-17T20:48:00.497Z,87.90
2017-11-17T20:50:28.653Z,89.97
2017-11-17T20:52:57.575Z,81.37
2017-11-17T20:55:25.747Z,80.97
2017-11-17T20:57:53.893Z,86.00
2017-11-17T21:00:22.023Z,80.23
2017-11-17T21:02:50.205Z,80.17
2017-11-17T21:05:18.423Z,75.23
2017-11-17T21:07:46.618Z,77.97
2017-11-17T21:10:14.780Z,86.57
2017-11-17T21:12:42.954Z,82.63
2017-11-17T21:15:11.112Z,72.13
2017-11-17T21:17:39.266Z,79.97
2017-11-17T21:20:08.187Z,79.70
2017-11-17T21:22:36.358Z,81.87
2017-11-17T21:25:06.176Z,74.40
2017-11-17T21:27:34.328Z,73.90
2017-11-17T21:30:02.482Z,71.33
2017-11-17T21:32:31.396Z,82.73
2017-11-17T21:34:59.569Z,69.53
2017-11-17T21:37:27.725Z,68.67
2017-11-17T21:39:55.898Z,75.90
2017-11-17T21:42:24.056Z,69.77
2017-11-17T21:44:52.986Z,72.07
2017-11-17T21:47:21.139Z,77.37
2017-11-17T21:49:49.290Z,76.43
2017-11-17T21:52:18.214Z,81.77
2017-11-17T21:54:46.353Z,68.90
2017-11-17T21:57:15.286Z,80.73
2017-11-17T21:59:43.451Z,76.57
2017-11-17T22:02:11.578Z,80.67
2017-11-17T22:04:39.732Z,79.67
2017-11-17T22:07:07.886Z,81.63
2017-11-17T22:09:36.810Z,80.30
2017-11-17T22:12:06.477Z,79.97
2017-11-17T22:14:34.751Z,76.77
2017-11-17T22:17:02.891Z,82.40
2017-11-17T22:19:31.078Z,74.27
2017-11-17T22:21:59.264Z,71.80
2017-11-17T22:24:27.415Z,76.43
2017-11-17T22:26:55.576Z,80.73
2017-11-17T22:29:24.470Z,84.40
2017-11-17T22:31:53.412Z,84.80
2017-11-17T22:34:21.568Z,85.13
2017-11-17T22:36:50.469Z,76.27
2017-11-17T22:39:18.635Z,78.90
2017-11-17T22:41:46.788Z,70.67
2017-11-17T22:44:15.159Z,80.77
2017-11-17T22:46:43.298Z,83.43
2017-11-17T22:49:11.453Z,66.53
2017-11-17T22:51:39.592Z,75.00
2017-11-17T22:54:07.801Z,79.17
2017-11-17T22:56:35.950Z,70.33
2017-11-17T22:59:04.081Z,80.13
2017-11-17T23:01:32.221Z,74.73
2017-11-17T23:04:00.342Z,72.50
2017-11-17T23:06:28.848Z,76.83
2017-11-17T23:08:57.049Z,76.53
2017-11-17T23:11:25.210Z,81.83
2017-11-17T23:13:53.342Z,79.47
2017-11-17T23:16:21.498Z,76.70
2017-11-17T23:18:49.671Z,76.90
2017-11-17T23:21:18.563Z,69.30
2017-11-17T23:23:46.705Z,80.17
2017-11-17T23:26:14.855Z,80.87
2017-11-17T23:28:42.982Z,72.77
2017-11-17T23:31:11.144Z,88.10
2017-11-17T23:33:40.030Z,79.67
2017-11-17T23:36:08.947Z,78.57
2017-11-17T23:38:37.080Z,77.37
2017-11-17T23:41:05.999Z,75.00
2017-11-17T23:43:34.898Z,79.77
2017-11-17T23:46:03.031Z,84.90
2017-11-17T23:48:31.954Z,72.40
2017-11-17T23:51:00.067Z,75.43
2017-11-17T23:53:28.225Z,69.53
2017-11-17T23:55:56.368Z,80.03
2017-11-17T23:58:25.296Z,72.40
